Time;durP1;ratioP1;P1;durP2;ratioP2;P2;SDS_P1;SDS_P2;PMS_P1;PMS_P2;Temp;Humidity;BMP_temperature;BMP_pressure;BME280_temperature;BME280_humidity;BME280_pressure;Samples;Min_cycle;Max_cycle;Signal;HPM_P1;HPM_P2
2022/04/30 00:01:21;;;;;;;10.65;6.03;;;;;;;11.77;52.84;97115.41;4992767;28;20053;-78
2022/04/30 00:03:49;;;;;;;6.95;6.18;;;;;;;11.75;52.71;97112.97;4993128;28;20046;-78
2022/04/30 00:06:16;;;;;;;10.15;7.00;;;;;;;11.74;52.97;97113.13;4992273;28;20081;-78
2022/04/30 00:08:44;;;;;;;7.50;6.80;;;;;;;11.74;53.22;97107.91;4992958;28;20054;-78
2022/04/30 00:11:12;;;;;;;9.25;7.25;;;;;;;11.76;53.26;97105.91;4993291;28;20054;-78
2022/04/30 00:13:40;;;;;;;6.97;6.28;;;;;;;11.77;52.94;97104.13;4992844;28;20133;-78
2022/04/30 00:16:09;;;;;;;10.50;7.22;;;;;;;11.78;53.33;97114.41;4992600;28;20061;-78
2022/04/30 00:18:37;;;;;;;7.05;5.93;;;;;;;11.81;53.43;97103.59;4993157;28;20497;-78
2022/04/30 00:21:05;;;;;;;7.90;7.10;;;;;;;11.89;56.09;97106.16;4992946;28;20046;-78
2022/04/30 00:23:32;;;;;;;9.10;8.15;;;;;;;11.95;55.33;97105.44;4992851;28;20081;-78
2022/04/30 00:26:00;;;;;;;11.35;8.13;;;;;;;11.98;55.18;97103.47;4992215;28;20485;-78
2022/04/30 00:28:27;;;;;;;8.77;7.88;;;;;;;11.99;55.06;97105.13;4992609;28;20058;-78
2022/04/30 00:30:55;;;;;;;12.27;8.68;;;;;;;12.01;55.96;97103.94;4992671;28;20042;-78
2022/04/30 00:33:24;;;;;;;11.07;8.55;;;;;;;12.04;55.01;97113.22;4992785;28;20056;-78
2022/04/30 00:35:52;;;;;;;9.48;8.50;;;;;;;12.04;56.67;97108.81;4992202;28;20061;-78
2022/04/30 00:38:20;;;;;;;9.88;8.63;;;;;;;12.04;55.20;97102.78;4993147;28;20050;-78
2022/04/30 00:40:47;;;;;;;12.43;8.77;;;;;;;12.04;55.81;97100.16;4992460;28;20050;-78
2022/04/30 00:43:15;;;;;;;10.50;8.68;;;;;;;12.01;54.89;97095.28;4992971;28;20052;-78
2022/04/30 00:45:47;;;;;;;10.70;7.78;;;;;;;11.98;54.83;97098.25;4992185;28;20057;-78
2022/04/30 00:48:15;;;;;;;8.85;7.22;;;;;;;11.94;54.18;97093.38;4992409;28;20093;-78
2022/04/30 00:50:44;;;;;;;10.15;8.25;;;;;;;11.98;56.43;97103.47;4992518;28;20081;-78
2022/04/30 00:53:17;;;;;;;9.45;8.45;;;;;;;12.04;58.09;97100.16;4992801;28;20068;-77
2022/04/30 00:55:47;;;;;;;10.80;9.57;;;;;;;12.11;57.48;97103.66;4991731;28;20053;-78
2022/04/30 00:58:19;;;;;;;12.80;9.80;;;;;;;12.14;56.99;97090.25;4992851;28;20050;-78
2022/04/30 01:00:50;;;;;;;11.88;9.45;;;;;;;12.17;57.56;97087.28;4992439;28;20056;-77
2022/04/30 01:03:17;;;;;;;12.80;10.10;;;;;;;12.13;55.65;97088.63;4992532;28;20043;-78
2022/04/30 01:05:49;;;;;;;11.88;9.25;;;;;;;12.06;55.07;97091.13;4991930;28;20058;-77
2022/04/30 01:08:16;;;;;;;12.40;8.82;;;;;;;12.03;55.49;97096.72;4992522;28;20051;-78
2022/04/30 01:10:44;;;;;;;9.68;8.18;;;;;;;12.05;55.35;97083.50;4992756;28;20050;-78
2022/04/30 01:13:13;;;;;;;10.70;8.10;;;;;;;12.09;56.76;97084.72;4996174;28;20133;-78
2022/04/30 01:15:41;;;;;;;10.30;8.85;;;;;;;12.13;56.63;97086.00;4995803;28;20489;-78
2022/04/30 01:18:10;;;;;;;10.50;8.88;;;;;;;12.13;56.55;97086.84;4995688;28;20050;-78
2022/04/30 01:20:39;;;;;;;11.93;10.18;;;;;;;12.09;55.98;97080.34;4995785;28;20061;-78
2022/04/30 01:23:09;;;;;;;11.15;9.68;;;;;;;12.07;56.17;97086.72;4996173;28;20052;-78
2022/04/30 01:25:39;;;;;;;10.98;9.10;;;;;;;12.04;55.67;97076.63;4995798;28;20042;-78
2022/04/30 01:28:08;;;;;;;8.70;7.85;;;;;;;12.01;55.06;97082.22;4995286;28;20061;-78
2022/04/30 01:30:36;;;;;;;9.10;8.18;;;;;;;12.05;58.70;97073.03;4995597;28;20050;-78
2022/04/30 01:38:35;;;;;;;10.25;8.90;;;;;;;12.08;55.75;97067.44;5005446;28;20050;-78
2022/04/30 01:41:03;;;;;;;11.73;9.25;;;;;;;12.08;57.79;97052.53;5011419;28;20057;-78
2022/04/30 01:43:33;;;;;;;11.00;9.75;;;;;;;12.10;57.36;97058.41;5004504;28;20050;-78
2022/04/30 01:46:01;;;;;;;13.48;9.77;;;;;;;12.11;56.71;97057.44;4994909;28;20054;-77
2022/04/30 01:48:29;;;;;;;9.10;8.18;;;;;;;12.10;58.16;97052.38;4995772;28;20060;-78
2022/04/30 01:50:57;;;;;;;9.35;8.43;;;;;;;12.13;59.57;97047.59;4995952;28;20050;-78
2022/04/30 01:53:24;;;;;;;9.73;8.82;;;;;;;12.19;59.17;97048.69;4995026;28;20046;-78
2022/04/30 01:55:53;;;;;;;11.85;9.43;;;;;;;12.20;58.30;97050.31;4994420;28;20058;-78
2022/04/30 01:58:21;;;;;;;9.52;8.63;;;;;;;12.24;58.97;97046.31;4995085;28;20057;-78
2022/04/30 02:00:48;;;;;;;13.35;9.15;;;;;;;12.25;58.77;97047.97;4988880;28;20533;-78
2022/04/30 02:03:17;;;;;;;9.30;8.40;;;;;;;12.26;57.63;97046.16;4975483;28;20043;-78
2022/04/30 02:05:45;;;;;;;11.90;9.27;;;;;;;12.23;57.29;97049.94;4974774;28;20497;-77
2022/04/30 02:08:15;;;;;;;10.63;8.88;;;;;;;12.16;56.50;97042.00;4975401;28;20505;-78
2022/04/30 02:10:43;;;;;;;10.65;8.13;;;;;;;12.15;57.45;97036.94;4975215;28;20057;-78
2022/04/30 02:13:14;;;;;;;9.30;8.35;;;;;;;12.18;60.26;97043.63;4975465;28;20348;-78
2022/04/30 02:15:44;;;;;;;10.13;9.10;;;;;;;12.19;60.49;97042.63;4975296;28;20528;-78
2022/04/30 02:18:13;;;;;;;10.05;8.77;;;;;;;12.14;58.00;97043.97;4975542;28;20047;-78
2022/04/30 02:20:44;;;;;;;10.65;8.80;;;;;;;12.16;60.28;97038.59;4975204;28;20401;-78
2022/04/30 02:23:14;;;;;;;9.80;8.40;;;;;;;12.19;59.73;97042.63;4975650;28;20046;-78
2022/04/30 02:25:41;;;;;;;14.50;10.18;;;;;;;12.15;58.06;97032.53;4996025;28;20043;-78
2022/04/30 02:28:09;;;;;;;11.30;10.18;;;;;;;12.13;59.85;97029.31;4994859;28;20054;-78
2022/04/30 02:30:39;;;;;;;12.35;9.85;;;;;;;12.12;60.08;97027.66;4986737;28;20082;-78
2022/04/30 02:33:08;;;;;;;11.02;9.95;;;;;;;12.13;59.92;97023.25;4975096;28;20051;-78
2022/04/30 02:35:37;;;;;;;12.48;11.18;;;;;;;12.15;59.16;97031.72;4975095;28;20050;-78
2022/04/30 02:38:08;;;;;;;10.95;9.75;;;;;;;12.12;59.21;97014.59;4974257;28;20057;-78
2022/04/30 02:40:37;;;;;;;10.57;9.55;;;;;;;12.10;59.56;97013.16;4974827;28;20050;-78
2022/04/30 02:43:07;;;;;;;10.50;9.50;;;;;;;12.07;58.82;97009.09;4974695;28;20050;-78
2022/04/30 02:45:36;;;;;;;11.60;10.40;;;;;;;12.05;59.47;97011.09;4974758;28;20070;-77
2022/04/30 02:48:07;;;;;;;10.98;9.88;;;;;;;12.03;59.23;97007.84;4974253;28;20051;-78
2022/04/30 02:50:36;;;;;;;10.75;9.65;;;;;;;12.03;60.58;97005.22;4974827;28;20058;-78
2022/04/30 02:53:04;;;;;;;12.15;9.70;;;;;;;12.05;60.92;96997.19;4974567;28;20497;-78
2022/04/30 02:55:32;;;;;;;11.05;9.20;;;;;;;12.06;60.81;96997.00;4974827;28;20051;-78
2022/04/30 03:00:47;;;;;;;10.70;9.68;;;;;;;12.02;59.15;96993.13;4975094;28;20050;-78
2022/04/30 03:03:16;;;;;;;11.38;9.27;;;;;;;12.00;60.11;96986.47;4974452;28;20046;-78
2022/04/30 03:05:47;;;;;;;10.70;9.60;;;;;;;12.00;60.31;96991.69;4974347;28;20051;-78
2022/04/30 03:08:18;;;;;;;12.73;10.27;;;;;;;11.99;58.49;96992.69;4975005;28;20054;-78
2022/04/30 03:10:47;;;;;;;10.98;9.88;;;;;;;11.95;58.96;96994.84;4974725;28;20054;-78
2022/04/30 03:13:17;;;;;;;11.93;10.23;;;;;;;11.94;58.50;96983.59;4974588;28;20057;-78
2022/04/30 03:15:46;;;;;;;11.60;9.68;;;;;;;11.92;58.88;96980.34;4974395;28;20559;-78
2022/04/30 03:23:51;;;;;;;10.43;9.43;;;;;;;11.85;59.88;96989.03;4957920;28;20057;-78
2022/04/30 03:26:20;;;;;;;10.40;9.50;;;;;;;11.89;60.85;96988.53;4978867;28;20051;-78
2022/04/30 03:28:47;;;;;;;9.98;9.07;;;;;;;11.94;59.74;96999.28;4978526;28;20054;-78
2022/04/30 03:31:16;;;;;;;10.75;9.27;;;;;;;11.95;58.35;97000.06;4975088;28;20058;-78
2022/04/30 03:33:48;;;;;;;10.32;9.32;;;;;;;11.93;57.62;96996.81;4978610;28;20105;-78
2022/04/30 03:36:17;;;;;;;10.50;8.82;;;;;;;11.94;58.45;96998.47;4977907;28;20047;-78
2022/04/30 03:38:45;;;;;;;9.88;8.27;;;;;;;11.97;58.22;96999.91;4980189;28;20057;-78
2022/04/30 03:41:13;;;;;;;9.77;8.27;;;;;;;11.99;57.96;97006.56;4979797;28;20434;-78
2022/04/30 03:43:40;;;;;;;9.35;7.97;;;;;;;12.02;58.57;97013.25;4978128;28;20047;-77
2022/04/30 03:46:08;;;;;;;10.48;9.05;;;;;;;12.00;56.84;97015.22;4976374;28;20055;-78
2022/04/30 03:48:36;;;;;;;9.20;8.20;;;;;;;11.94;56.68;97017.56;4977134;28;20051;-77
2022/04/30 03:51:05;;;;;;;9.85;8.68;;;;;;;11.91;56.57;97020.53;4977009;28;20067;-78
2022/04/30 03:53:33;;;;;;;10.07;8.75;;;;;;;11.91;56.26;97027.56;4980123;28;20048;-79
2022/04/30 03:56:01;;;;;;;10.60;9.50;;;;;;;11.86;56.05;97028.06;4988793;28;20070;-78
2022/04/30 03:58:29;;;;;;;9.90;8.90;;;;;;;11.87;57.47;97027.09;4986048;28;20050;-78
2022/04/30 04:00:57;;;;;;;11.75;8.57;;;;;;;11.93;58.00;97029.00;4999295;28;20046;-79
2022/04/30 04:03:24;;;;;;;14.93;9.30;;;;;;;11.97;57.03;97031.28;4993094;28;20046;-79
2022/04/30 04:05:52;;;;;;;11.38;9.65;;;;;;;11.93;56.04;97042.06;5048306;23;20058;-78
2022/04/30 04:08:21;;;;;;;10.90;9.57;;;;;;;11.86;55.99;97035.91;4975051;28;20050;-78
2022/04/30 04:10:49;;;;;;;10.80;9.35;;;;;;;11.83;56.32;97031.06;4975153;28;20055;-79
2022/04/30 04:18:51;;;;;;;10.68;9.02;;;;;;;11.73;56.21;97038.34;4981251;28;20055;-81
2022/04/30 04:21:19;;;;;;;11.65;9.02;;;;;;;11.68;56.49;97040.69;4977425;28;20065;-77
2022/04/30 04:26:33;;;;;;;10.45;9.38;;;;;;;11.61;57.50;97040.56;4975374;28;20047;-79
2022/04/30 04:29:01;;;;;;;12.07;9.23;;;;;;;11.60;56.72;97046.78;5051715;23;20102;-80
2022/04/30 04:31:29;;;;;;;11.98;9.45;;;;;;;11.57;56.70;97051.53;4999705;28;20061;-80
2022/04/30 04:33:57;;;;;;;10.93;9.20;;;;;;;11.54;57.03;97055.31;5411191;23;20066;-80
2022/04/30 04:36:24;;;;;;;9.93;8.95;;;;;;;11.57;59.36;97059.38;4971363;28;20050;-80
2022/04/30 04:38:53;;;;;;;10.48;8.95;;;;;;;11.64;58.74;97055.88;4971855;28;20055;-80
2022/04/30 04:41:21;;;;;;;12.15;9.32;;;;;;;11.67;57.50;97057.34;4972041;28;20070;-80
2022/04/30 04:43:48;;;;;;;10.07;9.07;;;;;;;11.64;57.10;97055.09;4971449;28;20515;-80
2022/04/30 04:46:16;;;;;;;12.63;10.45;;;;;;;11.61;56.91;97065.88;4972612;28;20494;-80
2022/04/30 04:48:44;;;;;;;11.38;10.15;;;;;;;11.56;56.78;97058.56;4975603;28;20093;-80
2022/04/30 04:51:12;;;;;;;16.70;11.55;;;;;;;11.54;56.79;97069.22;4977053;28;20497;-80
2022/04/30 04:53:40;;;;;;;15.02;10.43;;;;;;;11.55;57.11;97075.25;4978677;28;20047;-80
2022/04/30 04:56:09;;;;;;;15.50;12.32;;;;;;;11.59;57.09;97073.06;4976541;28;20355;-80
2022/04/30 04:58:36;;;;;;;20.10;13.38;;;;;;;11.61;56.69;97071.94;4992540;28;20110;-80
2022/04/30 05:01:04;;;;;;;17.15;12.80;;;;;;;11.62;56.89;97073.53;4993103;28;20061;-80
2022/04/30 05:03:32;;;;;;;17.40;13.07;;;;;;;11.63;56.53;97074.34;4993043;28;20537;-80
2022/04/30 05:05:59;;;;;;;14.48;11.45;;;;;;;11.66;57.97;97079.25;4991782;28;20155;-80
2022/04/30 05:08:27;;;;;;;15.85;11.25;;;;;;;11.71;57.24;97076.91;4989666;28;20051;-80
2022/04/30 05:10:55;;;;;;;12.38;10.35;;;;;;;11.72;56.69;97075.94;4989280;28;20059;-80
2022/04/30 05:13:24;;;;;;;12.00;10.65;;;;;;;11.73;56.49;97080.16;4986449;28;20432;-80
2022/04/30 05:15:51;;;;;;;14.63;11.30;;;;;;;11.73;56.63;97082.75;4977105;28;20054;-80
2022/04/30 05:18:19;;;;;;;12.25;11.00;;;;;;;11.75;57.51;97088.63;4977055;28;20515;-80
2022/04/30 05:20:47;;;;;;;12.30;11.05;;;;;;;11.81;57.45;97093.16;4976789;28;20054;-80
2022/04/30 05:23:15;;;;;;;12.55;11.05;;;;;;;11.84;57.31;97089.38;4976439;28;20055;-80
2022/04/30 05:25:42;;;;;;;11.38;10.15;;;;;;;11.88;57.25;97082.84;4976076;28;20520;-80
2022/04/30 05:28:10;;;;;;;12.95;10.27;;;;;;;11.92;57.54;97095.38;4976271;28;20113;-80
2022/04/30 05:30:39;;;;;;;12.63;11.35;;;;;;;11.94;57.43;97088.16;4976581;28;20062;-80
2022/04/30 05:33:07;;;;;;;11.13;10.02;;;;;;;11.94;57.83;97090.78;4976174;28;20046;-80
2022/04/30 05:35:34;;;;;;;13.10;11.40;;;;;;;11.92;57.69;97095.38;4976590;28;20054;-81
2022/04/30 05:38:02;;;;;;;14.57;11.60;;;;;;;11.91;58.06;97098.94;4975848;28;20070;-80
2022/04/30 05:40:30;;;;;;;13.98;12.27;;;;;;;11.95;58.07;97097.59;4976232;28;20543;-80
2022/04/30 05:42:57;;;;;;;13.02;11.65;;;;;;;12.01;58.50;97095.28;4976737;28;20042;-80
2022/04/30 05:45:26;;;;;;;13.23;11.25;;;;;;;12.07;59.15;97105.00;4976255;28;20043;-80
2022/04/30 06:10:09;;;;;;;17.02;14.20;;;;;;;12.62;61.77;97124.72;5450038;23;20058;-78
2022/04/30 08:59:08;;;;;;;12.38;11.13;;;;;;;15.33;55.54;97125.44;5263610;23;20033;-79
2022/04/30 09:02:04;;;;;;;14.05;11.70;;;;;;;15.39;55.21;97132.50;5151661;23;20038;-81
2022/04/30 10:14:59;;;;;;;15.27;12.50;;;;;;;17.50;50.72;97108.63;5644078;23;20133;-80
2022/04/30 10:17:41;;;;;;;15.85;12.27;;;;;;;17.51;50.76;97112.06;4966699;29;20058;-79
2022/04/30 10:20:36;;;;;;;16.10;11.85;;;;;;;17.50;50.84;97110.47;5195860;23;20078;-80
2022/04/30 10:23:24;;;;;;;16.65;12.77;;;;;;;17.50;50.81;97115.72;4999743;28;20055;-79
2022/04/30 11:46:58;;;;;;;13.73;10.32;;;;;;;17.29;48.07;97083.41;2097883;23;20047;-80
2022/04/30 11:49:27;;;;;;;12.43;10.05;;;;;;;17.11;48.55;97087.78;4985076;28;20133;-79
2022/04/30 11:52:07;;;;;;;13.02;10.68;;;;;;;16.92;48.65;97092.13;4985201;28;20456;-79
2022/04/30 11:54:38;;;;;;;10.98;9.88;;;;;;;16.71;48.74;97093.19;4984787;28;20445;-79
2022/04/30 11:57:06;;;;;;;10.15;9.05;;;;;;;16.57;49.52;97102.94;4983745;28;20055;-79
2022/04/30 11:59:36;;;;;;;11.43;9.80;;;;;;;16.40;50.14;97108.69;4983869;28;20050;-80
2022/04/30 12:02:08;;;;;;;13.40;10.57;;;;;;;16.19;50.92;97114.19;4982510;28;20050;-79
2022/04/30 12:04:37;;;;;;;11.13;8.87;;;;;;;16.05;50.87;97114.19;4982689;28;20062;-78
2022/04/30 12:07:07;;;;;;;11.23;9.70;;;;;;;15.96;50.58;97120.69;4982200;28;20054;-80
2022/04/30 12:09:37;;;;;;;10.82;9.73;;;;;;;15.84;50.08;97132.81;4982896;28;20478;-79
2022/04/30 12:12:16;;;;;;;11.73;9.85;;;;;;;15.69;50.64;97134.78;4983928;28;20564;-79
2022/04/30 12:14:45;;;;;;;17.45;10.88;;;;;;;15.57;51.96;97143.28;4980610;28;20047;-78
2022/04/30 12:17:14;;;;;;;16.52;12.02;;;;;;;15.47;53.49;97153.38;4981905;28;20118;-79
2022/04/30 12:25:29;;;;;;;16.42;14.07;;;;;;;14.97;55.49;97152.81;4982381;28;20061;-79
2022/04/30 12:27:59;;;;;;;17.27;12.90;;;;;;;14.79;56.36;97151.50;4983562;28;20114;-80
2022/04/30 12:30:52;;;;;;;15.07;12.18;;;;;;;14.63;56.71;97144.78;4983371;28;20061;-80
2022/04/30 12:33:23;;;;;;;15.27;11.57;;;;;;;14.51;57.22;97148.91;4984562;28;20424;-80
2022/04/30 12:35:56;;;;;;;19.92;12.98;;;;;;;14.33;57.24;97146.78;4984072;28;20134;-78
2022/04/30 12:38:23;;;;;;;;;;;;;;;14.23;57.45;97146.28;4985638;28;20061;-80
2022/04/30 12:40:51;;;;;;;28.63;14.43;;;;;;;14.00;58.59;97141.28;4983984;28;19922;-79
2022/04/30 12:43:19;;;;;;;18.13;14.10;;;;;;;13.83;60.01;97140.75;4983523;28;20054;-79
2022/04/30 12:45:48;;;;;;;19.73;13.63;;;;;;;13.73;60.93;97140.25;4983250;28;20055;-80
2022/04/30 12:48:16;;;;;;;16.08;12.48;;;;;;;13.67;61.04;97138.41;4984037;28;20081;-79
2022/04/30 12:50:44;;;;;;;15.43;11.65;;;;;;;13.62;61.85;97143.38;4981549;28;20428;-78
2022/04/30 12:53:12;;;;;;;12.70;10.80;;;;;;;13.55;61.40;97141.50;4982381;28;20054;-80
2022/04/30 12:55:41;;;;;;;9.40;8.50;;;;;;;13.49;61.29;97139.66;4981681;28;20051;-81
2022/04/30 12:58:10;;;;;;;11.05;8.52;;;;;;;13.44;61.30;97142.00;4978963;28;20054;-79
2022/04/30 13:00:38;;;;;;;10.05;8.80;;;;;;;13.42;61.51;97141.38;4979023;28;20055;-78
2022/04/30 13:03:07;;;;;;;9.35;7.97;;;;;;;13.38;61.81;97132.25;4979861;28;20059;-77
2022/04/30 13:05:35;;;;;;;16.77;9.30;;;;;;;13.39;63.76;97133.88;4979413;28;20103;-77
2022/04/30 13:08:04;;;;;;;10.00;8.45;;;;;;;13.41;62.67;97131.09;4979464;28;20054;-78
2022/04/30 13:13:33;;;;;;;10.40;8.63;;;;;;;13.44;62.77;97128.88;4982163;28;20055;-78
2022/04/30 13:16:06;;;;;;;8.77;7.88;;;;;;;13.40;63.05;97122.41;4974212;28;20150;-78
2022/04/30 13:18:35;;;;;;;8.93;8.05;;;;;;;13.35;62.12;97122.16;4984413;28;20058;-78
2022/04/30 13:21:03;;;;;;;8.32;6.63;;;;;;;13.31;61.38;97120.91;4984604;28;20051;-78
2022/04/30 13:23:32;;;;;;;7.25;6.55;;;;;;;13.27;61.87;97120.44;4984376;28;20054;-78
2022/04/30 13:26:00;;;;;;;9.85;7.75;;;;;;;13.28;62.67;97122.09;4984337;28;20049;-78
2022/04/30 13:28:27;;;;;;;6.50;5.90;;;;;;;13.30;62.56;97112.22;4983994;28;20086;-79
2022/04/30 13:30:55;;;;;;;6.60;5.97;;;;;;;13.31;61.41;97110.41;4984146;28;20057;-79
2022/04/30 13:33:23;;;;;;;8.70;7.70;;;;;;;13.24;61.64;97115.56;4983111;28;20416;-77
2022/04/30 13:35:50;;;;;;;7.35;6.65;;;;;;;13.16;62.00;97115.66;4980098;28;20421;-77
2022/04/30 13:38:18;;;;;;;7.95;6.57;;;;;;;13.09;61.94;97110.34;4980947;28;20055;-81
2022/04/30 13:40:46;;;;;;;13.30;8.82;;;;;;;13.07;64.96;97117.59;4980420;28;20055;-80
2022/04/30 13:43:15;;;;;;;6.72;6.13;;;;;;;13.08;63.14;97110.56;4981295;28;20051;-78
2022/04/30 13:45:43;;;;;;;6.07;5.47;;;;;;;13.05;62.61;97106.47;4981591;28;20074;-78
2022/04/30 13:48:10;;;;;;;6.55;5.72;;;;;;;12.98;63.61;97103.78;4980150;28;20501;-77
2022/04/30 13:50:38;;;;;;;9.52;7.25;;;;;;;13.02;65.54;97112.09;4980936;28;20065;-77
2022/04/30 13:53:05;;;;;;;7.47;5.70;;;;;;;13.04;63.96;97109.31;4979831;28;20054;-76
2022/04/30 13:55:34;;;;;;;6.40;5.57;;;;;;;13.00;64.07;97101.00;4979365;28;20047;-78
2022/04/30 13:58:03;;;;;;;4.25;3.92;;;;;;;12.95;62.51;97098.13;4979381;28;20055;-77
2022/04/30 14:00:30;;;;;;;4.18;3.88;;;;;;;12.90;61.88;97092.63;4980729;28;20046;-78
2022/04/30 14:02:58;;;;;;;6.25;5.03;;;;;;;12.89;62.73;97088.38;4979204;28;20580;-77
2022/04/30 14:05:26;;;;;;;6.25;5.70;;;;;;;12.91;62.54;97084.59;4979273;28;20413;-78
2022/04/30 14:07:53;;;;;;;7.35;6.00;;;;;;;12.93;64.54;97084.41;4977919;28;20077;-79
2022/04/30 14:10:22;;;;;;;5.82;5.05;;;;;;;12.93;63.12;97077.34;4978695;28;20425;-77
2022/04/30 14:12:54;;;;;;;8.02;6.13;;;;;;;12.95;65.58;97074.56;4979401;28;20058;-77
2022/04/30 14:15:21;;;;;;;3.55;3.25;;;;;;;12.98;63.43;97079.41;4977883;28;20050;-79
2022/04/30 14:20:34;;;;;;;3.95;3.65;;;;;;;12.90;62.30;97072.50;4981228;28;20066;-78
2022/04/30 14:23:02;;;;;;;5.95;5.35;;;;;;;12.87;64.55;97069.44;4981357;28;20066;-78
2022/04/30 14:25:29;;;;;;;5.68;5.07;;;;;;;12.92;65.79;97069.69;4980735;28;20053;-78
2022/04/30 14:27:57;;;;;;;4.60;4.20;;;;;;;12.93;64.43;97066.88;4980746;28;20057;-80
2022/04/30 14:30:26;;;;;;;7.85;5.10;;;;;;;12.97;67.71;97076.00;4979126;28;20081;-80
2022/04/30 14:32:53;;;;;;;6.93;6.15;;;;;;;12.94;64.60;97072.94;4979810;28;20051;-78
2022/04/30 14:35:21;;;;;;;6.38;5.43;;;;;;;12.93;66.64;97077.34;4977541;28;20066;-79
2022/04/30 14:37:49;;;;;;;6.85;6.15;;;;;;;12.94;65.41;97072.94;4976879;28;20051;-81
2022/04/30 14:40:17;;;;;;;7.07;6.38;;;;;;;12.93;65.22;97071.31;4976613;28;20055;-79
2022/04/30 14:42:45;;;;;;;6.35;4.80;;;;;;;12.91;65.33;97070.69;4976959;28;20050;-77
2022/04/30 14:45:14;;;;;;;5.90;5.30;;;;;;;12.92;65.25;97070.50;4976354;28;20106;-77
2022/04/30 14:47:43;;;;;;;6.22;5.63;;;;;;;12.97;66.50;97072.56;4976733;28;20055;-79
2022/04/30 14:50:11;;;;;;;8.13;6.47;;;;;;;13.00;67.92;97074.81;4975813;28;20057;-78
2022/04/30 14:52:38;;;;;;;7.38;6.32;;;;;;;13.05;68.37;97079.50;4977128;28;20050;-78
2022/04/30 14:55:07;;;;;;;7.90;6.20;;;;;;;13.07;68.09;97078.31;4977748;28;20051;-78
2022/04/30 14:57:35;;;;;;;5.80;5.30;;;;;;;13.09;67.81;97065.84;4976664;28;20047;-77
2022/04/30 15:00:02;;;;;;;6.25;5.65;;;;;;;13.11;67.86;97071.69;4977288;28;20050;-78
2022/04/30 15:02:30;;;;;;;5.85;5.30;;;;;;;13.11;69.17;97069.09;4977155;28;20571;-78
2022/04/30 15:04:59;;;;;;;5.45;4.72;;;;;;;13.13;69.41;97069.72;4978189;28;20065;-82
2022/04/30 15:07:26;;;;;;;5.80;5.30;;;;;;;13.15;69.41;97065.09;4977208;28;20416;-77
2022/04/30 15:09:54;;;;;;;4.60;4.20;;;;;;;13.11;66.02;97065.66;4977750;28;20054;-83
2022/04/30 15:12:23;;;;;;;5.97;5.32;;;;;;;13.09;66.80;97070.28;4977694;28;20055;-79
2022/04/30 15:14:50;;;;;;;4.60;4.20;;;;;;;13.09;66.12;97067.66;4978224;28;20054;-82
2022/04/30 15:17:18;;;;;;;5.43;4.93;;;;;;;13.07;66.60;97073.06;4978323;28;20046;-80
2022/04/30 15:19:45;;;;;;;5.63;5.10;;;;;;;13.04;65.73;97067.41;4978984;28;20051;-79
2022/04/30 15:22:15;;;;;;;5.78;5.28;;;;;;;12.98;65.24;97072.38;4978365;28;20062;-82
2022/04/30 15:24:45;;;;;;;5.60;5.10;;;;;;;12.93;65.19;97076.56;4978141;28;20423;-78
2022/04/30 15:27:13;;;;;;;5.25;4.75;;;;;;;12.82;64.97;97077.84;4976951;28;20047;-79
2022/04/30 15:29:40;;;;;;;6.47;5.75;;;;;;;12.80;68.51;97068.56;4977509;28;20061;-78
2022/04/30 15:32:10;;;;;;;5.10;4.70;;;;;;;12.81;66.24;97073.59;4977950;28;20051;-80
2022/04/30 15:34:37;;;;;;;7.05;5.97;;;;;;;12.80;66.09;97071.97;4979703;28;20050;-79
2022/04/30 15:37:05;;;;;;;6.35;5.75;;;;;;;12.82;68.58;97071.81;4980855;28;20053;-82
2022/04/30 15:39:34;;;;;;;7.55;6.70;;;;;;;12.87;69.37;97075.47;4982709;28;20102;-79
2022/04/30 15:42:01;;;;;;;7.82;6.88;;;;;;;12.94;69.56;97075.53;4982978;28;20063;-79
2022/04/30 15:44:29;;;;;;;7.95;7.15;;;;;;;12.99;70.17;97079.25;4982543;28;20054;-79
2022/04/30 15:52:26;;;;;;;8.65;7.43;;;;;;;13.06;68.40;97071.47;4979150;28;20077;-78
2022/04/30 15:54:55;;;;;;;8.82;7.85;;;;;;;13.10;70.13;97069.28;4978912;28;20062;-80
2022/04/30 15:57:23;;;;;;;8.05;6.47;;;;;;;13.09;67.86;97071.06;4978093;28;20058;-79
2022/04/30 15:59:51;;;;;;;8.32;7.53;;;;;;;13.08;68.17;97074.69;4978375;28;20097;-78
2022/04/30 16:02:18;;;;;;;9.02;7.38;;;;;;;13.12;69.61;97068.09;4978939;28;20054;-79
2022/04/30 16:04:48;;;;;;;7.75;6.22;;;;;;;13.13;68.49;97068.91;4978324;28;20047;-78
2022/04/30 16:07:15;;;;;;;6.97;6.28;;;;;;;13.15;68.36;97072.16;4978679;28;20142;-78
2022/04/30 16:09:43;;;;;;;6.45;5.82;;;;;;;13.16;68.67;97071.97;4979256;28;20129;-78
2022/04/30 16:12:13;;;;;;;7.55;5.47;;;;;;;13.18;68.73;97069.97;4981190;28;20051;-80
2022/04/30 16:14:40;;;;;;;5.70;5.20;;;;;;;13.17;66.08;97068.34;4980089;28;20061;-79
2022/04/30 16:17:08;;;;;;;5.20;4.80;;;;;;;13.17;67.56;97062.31;4980079;28;20051;-78
2022/04/30 16:19:36;;;;;;;4.80;4.32;;;;;;;13.19;67.35;97066.34;4979882;28;20113;-78
2022/04/30 16:22:07;;;;;;;6.35;5.75;;;;;;;13.22;66.64;97064.34;4979739;28;20080;-79
2022/04/30 16:24:35;;;;;;;6.20;5.60;;;;;;;13.25;67.82;97058.72;4980190;28;20078;-78
2022/04/30 16:27:04;;;;;;;6.68;5.75;;;;;;;13.27;67.45;97051.50;4979457;28;20057;-80
2022/04/30 16:29:33;;;;;;;6.50;5.50;;;;;;;13.29;67.20;97057.41;4980226;28;20082;-80
2022/04/30 16:32:01;;;;;;;6.30;5.60;;;;;;;13.29;66.06;97058.19;4981250;28;20058;-76
2022/04/30 16:34:29;;;;;;;7.93;6.40;;;;;;;13.31;66.95;97052.78;4979581;28;20054;-80
2022/04/30 16:36:57;;;;;;;6.05;5.55;;;;;;;13.31;64.91;97050.16;4978781;28;20054;-79
2022/04/30 16:39:24;;;;;;;6.82;6.13;;;;;;;13.31;65.53;97052.78;4983317;28;20481;-79
2022/04/30 16:41:52;;;;;;;6.55;5.95;;;;;;;13.31;66.29;97058.81;4980904;28;20093;-78
2022/04/30 16:44:19;;;;;;;6.85;6.25;;;;;;;13.33;68.33;97062.06;4983371;28;20047;-81
2022/04/30 16:46:48;;;;;;;6.97;6.13;;;;;;;13.37;68.93;97065.13;4983790;28;20055;-79
2022/04/30 16:49:16;;;;;;;6.47;5.88;;;;;;;13.35;66.08;97064.50;4985426;28;20061;-81
2022/04/30 16:57:14;;;;;;;6.40;5.82;;;;;;;13.22;66.70;97049.44;4982323;28;20050;-78
2022/04/30 16:59:42;;;;;;;7.05;6.40;;;;;;;13.20;65.59;97065.34;4983582;28;20046;-78
2022/04/30 17:02:12;;;;;;;7.15;6.45;;;;;;;13.17;66.02;97067.53;4982686;28;20078;-78
2022/04/30 17:04:43;;;;;;;7.20;6.50;;;;;;;13.22;67.15;97061.75;4983495;28;20050;-78
2022/04/30 17:07:16;;;;;;;8.15;7.45;;;;;;;13.27;68.59;97064.59;4983299;28;20126;-79
2022/04/30 17:09:43;;;;;;;10.52;8.25;;;;;;;13.31;67.93;97069.31;4983057;28;20055;-80
2022/04/30 17:12:12;;;;;;;8.82;7.82;;;;;;;13.33;68.69;97066.50;4983482;28;20075;-79
2022/04/30 17:14:40;;;;;;;9.40;8.18;;;;;;;13.34;68.45;97062.91;4982548;28;20047;-78
2022/04/30 17:17:07;;;;;;;8.88;7.97;;;;;;;13.33;67.12;97066.50;4983246;28;20046;-79
2022/04/30 17:19:36;;;;;;;9.50;7.47;;;;;;;13.31;67.22;97063.25;4984194;28;20500;-79
2022/04/30 17:22:04;;;;;;;10.40;8.45;;;;;;;13.30;67.95;97066.88;4983462;28;20047;-77
2022/04/30 17:24:32;;;;;;;9.95;8.13;;;;;;;13.29;68.71;97066.06;4983901;28;20054;-77
2022/04/30 17:27:00;;;;;;;9.65;7.80;;;;;;;13.29;69.13;97066.06;4983153;28;20050;-78
2022/04/30 17:29:28;;;;;;;8.88;7.85;;;;;;;13.28;68.10;97068.84;4982192;28;20050;-77
2022/04/30 17:40:14;;;;;;;9.77;8.20;;;;;;;13.24;69.60;97071.03;4974928;28;20051;-78
2022/04/30 17:42:43;;;;;;;8.43;7.50;;;;;;;13.24;69.54;97072.84;4980899;28;20417;-77
2022/04/30 17:45:11;;;;;;;11.45;7.97;;;;;;;13.23;69.59;97071.19;4981393;28;20050;-77
2022/04/30 17:47:39;;;;;;;9.60;8.38;;;;;;;13.20;69.70;97077.63;5008398;23;20043;-80
2022/04/30 17:50:09;;;;;;;8.77;7.80;;;;;;;13.17;69.72;97078.81;4977277;28;20057;-80
2022/04/30 17:52:37;;;;;;;9.48;8.52;;;;;;;13.15;67.95;97082.63;4977167;28;20073;-80
2022/04/30 17:55:05;;;;;;;9.68;8.38;;;;;;;13.12;68.51;97075.97;4977279;28;20420;-80
2022/04/30 17:57:33;;;;;;;9.13;8.23;;;;;;;13.11;69.17;97082.19;4976953;28;20146;-80
2022/04/30 18:00:01;;;;;;;9.60;8.13;;;;;;;13.09;69.41;97078.94;4976851;28;20054;-80
2022/04/30 18:02:28;;;;;;;10.68;9.00;;;;;;;13.09;70.07;97073.69;4976934;28;20046;-80
2022/04/30 18:04:56;;;;;;;9.45;8.48;;;;;;;13.07;69.99;97073.06;4977190;28;20090;-80
2022/04/30 18:07:26;;;;;;;11.25;9.05;;;;;;;13.05;69.76;97071.63;4976645;28;20055;-80